createdAt,value
2018-09-13T00:02:07.354Z,3.63
2018-09-13T00:04:36.574Z,4.13
2018-09-13T00:07:05.850Z,4.13
2018-09-13T00:09:35.215Z,3.67
2018-09-13T00:12:04.495Z,3.90
2018-09-13T00:14:34.108Z,3.77
2018-09-13T00:17:03.416Z,3.90
2018-09-13T00:19:32.689Z,4.23
2018-09-13T00:22:02.029Z,3.70
2018-09-13T00:24:31.306Z,4.70
2018-09-13T00:27:00.762Z,4.07
2018-09-13T00:29:30.054Z,4.03
2018-09-13T00:31:59.550Z,4.67
2018-09-13T00:34:28.915Z,4.70
2018-09-13T00:36:58.257Z,4.47
2018-09-13T00:39:27.550Z,4.17
2018-09-13T00:41:56.764Z,4.70
2018-09-13T00:44:26.008Z,4.80
2018-09-13T00:46:56.172Z,4.80
2018-09-13T00:49:25.394Z,4.80
2018-09-13T00:51:54.669Z,4.40
2018-09-13T00:54:23.915Z,4.33
2018-09-13T00:56:54.264Z,4.17
2018-09-13T00:59:23.527Z,4.03
2018-09-13T01:01:52.742Z,3.77
2018-09-13T01:04:22.056Z,3.90
2018-09-13T01:06:51.444Z,3.30
2018-09-13T01:09:20.796Z,3.70
2018-09-13T01:11:50.068Z,3.60
2018-09-13T01:14:19.343Z,3.60
2018-09-13T01:16:48.652Z,3.50
2018-09-13T01:19:17.933Z,3.23
2018-09-13T01:21:47.308Z,3.43
2018-09-13T01:24:16.608Z,3.23
2018-09-13T01:26:45.960Z,3.90
2018-09-13T01:29:15.252Z,3.90
2018-09-13T01:31:44.583Z,3.63
2018-09-13T01:34:13.839Z,4.00
2018-09-13T01:36:43.051Z,4.13
2018-09-13T01:39:12.371Z,3.27
2018-09-13T01:41:41.660Z,3.93
2018-09-13T01:44:10.998Z,3.67
2018-09-13T01:46:40.899Z,3.83
2018-09-13T01:49:10.168Z,3.97
2018-09-13T01:51:40.545Z,3.80
2018-09-13T01:54:09.766Z,3.70
2018-09-13T01:56:39.165Z,3.77
2018-09-13T01:59:08.570Z,3.93
2018-09-13T02:01:37.908Z,3.70
2018-09-13T02:04:07.290Z,3.60
2018-09-13T02:06:36.619Z,4.00
2018-09-13T02:09:08.936Z,3.87
2018-09-13T02:11:38.418Z,4.43
2018-09-13T02:14:07.770Z,4.20
2018-09-13T02:16:37.108Z,4.37
2018-09-13T02:19:06.512Z,4.70
2018-09-13T02:21:35.793Z,4.80
2018-09-13T02:24:05.096Z,4.20
2018-09-13T02:26:34.359Z,4.60
2018-09-13T02:29:03.720Z,4.60
2018-09-13T02:31:33.120Z,4.53
2018-09-13T02:34:02.468Z,4.90
2018-09-13T02:36:31.763Z,4.60
2018-09-13T02:39:01.114Z,4.80
2018-09-13T02:41:30.371Z,4.83
2018-09-13T02:43:59.628Z,5.00
2018-09-13T02:46:28.812Z,5.00
2018-09-13T02:48:59.132Z,4.50
2018-09-13T02:51:28.431Z,4.83
2018-09-13T02:53:57.680Z,4.67
2018-09-13T02:56:26.923Z,4.80
2018-09-13T02:58:56.198Z,4.97
2018-09-13T03:01:25.415Z,5.30
2018-09-13T03:03:54.744Z,5.10
2018-09-13T03:06:24.020Z,5.63
2018-09-13T03:08:53.254Z,5.70
2018-09-13T03:11:22.499Z,5.97
2018-09-13T03:13:51.785Z,5.53
2018-09-13T03:16:21.090Z,6.07
2018-09-13T03:18:50.543Z,6.30
2018-09-13T03:21:19.828Z,6.63
2018-09-13T03:23:49.127Z,5.50
2018-09-13T03:26:18.394Z,6.17
2018-09-13T03:28:47.652Z,6.83
2018-09-13T03:31:16.910Z,6.33
2018-09-13T03:33:46.223Z,7.40
2018-09-13T03:36:27.338Z,7.00
2018-09-13T03:38:56.671Z,7.97
2018-09-13T03:41:25.915Z,7.93
2018-09-13T03:43:55.235Z,7.90
2018-09-13T03:46:24.521Z,7.97
2018-09-13T03:48:53.759Z,8.00
2018-09-13T03:51:23.017Z,8.63
2018-09-13T03:53:52.271Z,8.97
2018-09-13T03:56:21.555Z,8.80
2018-09-13T03:58:50.864Z,9.23
2018-09-13T04:01:20.139Z,10.07
2018-09-13T04:03:49.899Z,10.00
2018-09-13T04:06:19.173Z,9.27
2018-09-13T04:08:48.490Z,10.40
2018-09-13T04:11:17.759Z,9.70
2018-09-13T04:13:47.001Z,9.97
2018-09-13T04:16:16.286Z,10.43
2018-09-13T04:18:45.595Z,9.07
2018-09-13T04:21:15.467Z,9.20
2018-09-13T04:23:44.802Z,9.83
2018-09-13T04:26:14.043Z,9.63
2018-09-13T04:28:43.288Z,9.33
2018-09-13T04:31:12.650Z,10.23
2018-09-13T04:33:41.911Z,10.90
2018-09-13T04:36:11.232Z,11.03
2018-09-13T04:38:40.512Z,11.13
2018-09-13T04:41:09.912Z,11.13
2018-09-13T04:43:39.183Z,11.60
2018-09-13T04:46:08.536Z,10.93
2018-09-13T04:48:37.877Z,10.67
2018-09-13T04:51:07.351Z,10.40
2018-09-13T04:53:36.752Z,12.33
2018-09-13T04:56:06.134Z,11.53
2018-09-13T04:58:35.471Z,11.20
2018-09-13T05:01:05.133Z,11.50
2018-09-13T05:03:34.503Z,12.43
2018-09-13T05:06:03.818Z,12.40
2018-09-13T05:08:33.514Z,11.90
2018-09-13T05:11:02.851Z,12.53
2018-09-13T05:13:32.155Z,13.20
2018-09-13T05:16:01.448Z,13.37
2018-09-13T05:18:32.826Z,14.13
2018-09-13T05:21:02.244Z,13.60
2018-09-13T05:23:31.799Z,13.73
2018-09-13T05:26:01.158Z,14.03
2018-09-13T05:28:30.463Z,14.23
2018-09-13T05:30:59.859Z,15.20
2018-09-13T05:33:29.168Z,15.30
2018-09-13T05:35:58.442Z,14.70
2018-09-13T05:38:27.825Z,15.67
2018-09-13T05:40:57.069Z,15.03
2018-09-13T05:43:26.392Z,15.37
2018-09-13T05:45:55.659Z,14.67
2018-09-13T05:48:24.938Z,15.30
2018-09-13T05:50:54.171Z,13.93
2018-09-13T05:53:23.434Z,14.37
2018-09-13T05:55:52.773Z,15.03
2018-09-13T05:58:22.168Z,15.43
2018-09-13T06:00:51.595Z,14.00
2018-09-13T06:03:21.386Z,14.40
2018-09-13T06:05:50.799Z,14.73
2018-09-13T06:08:20.113Z,14.57
2018-09-13T06:10:49.424Z,14.53
2018-09-13T06:13:18.814Z,14.63
2018-09-13T06:15:48.050Z,14.57
2018-09-13T06:18:17.308Z,13.83
2018-09-13T06:20:46.690Z,15.00
2018-09-13T06:23:15.932Z,13.87
2018-09-13T06:25:45.198Z,13.30
2018-09-13T06:28:14.471Z,12.83
2018-09-13T06:30:43.731Z,12.93
2018-09-13T06:33:12.999Z,12.97
2018-09-13T06:35:42.287Z,12.00
2018-09-13T06:38:11.601Z,12.93
2018-09-13T06:40:40.839Z,11.63
2018-09-13T06:43:10.148Z,12.03
2018-09-13T06:45:39.418Z,12.20
2018-09-13T06:48:08.720Z,12.77
2018-09-13T06:50:37.961Z,11.97
2018-09-13T06:53:07.466Z,12.17
2018-09-13T06:55:36.738Z,11.27
2018-09-13T06:58:06.039Z,11.83
2018-09-13T07:00:35.611Z,11.50
2018-09-13T07:03:04.879Z,11.20
2018-09-13T07:05:34.224Z,10.93
2018-09-13T07:08:03.536Z,10.97
2018-09-13T07:10:32.822Z,10.43
2018-09-13T07:13:02.186Z,11.73
2018-09-13T07:15:31.485Z,12.07
2018-09-13T07:18:00.749Z,11.50
2018-09-13T07:20:30.062Z,11.57
2018-09-13T07:22:59.278Z,12.30
2018-09-13T07:25:28.550Z,13.93
2018-09-13T07:27:57.787Z,14.50
2018-09-13T07:30:27.054Z,14.33
2018-09-13T07:32:56.383Z,15.57
2018-09-13T07:35:25.693Z,15.70
2018-09-13T07:37:55.200Z,17.37
2018-09-13T07:40:24.555Z,18.70
2018-09-13T07:42:53.867Z,17.10
2018-09-13T07:45:23.132Z,16.13
2018-09-13T07:47:52.461Z,15.63
2018-09-13T07:50:21.757Z,15.43
2018-09-13T07:52:51.150Z,14.27
2018-09-13T07:55:20.464Z,12.00
2018-09-13T07:57:49.798Z,11.57
2018-09-13T08:00:19.088Z,10.03
2018-09-13T08:02:48.713Z,9.73
2018-09-13T08:05:17.981Z,10.10
2018-09-13T08:07:47.243Z,10.20
2018-09-13T08:10:16.589Z,9.67
2018-09-13T08:12:45.931Z,9.73
2018-09-13T08:15:15.322Z,9.20
2018-09-13T08:17:44.603Z,8.40
2018-09-13T08:20:13.903Z,8.17
2018-09-13T08:22:43.226Z,8.37
2018-09-13T08:25:12.566Z,7.63
2018-09-13T08:27:41.807Z,7.77
2018-09-13T08:30:11.118Z,6.27
2018-09-13T08:32:40.385Z,6.13
2018-09-13T08:35:09.744Z,7.30
2018-09-13T08:37:39.004Z,6.80
2018-09-13T08:40:08.336Z,6.67
2018-09-13T08:42:37.566Z,5.90
2018-09-13T08:45:06.935Z,6.80
2018-09-13T08:47:36.208Z,5.37
2018-09-13T08:50:05.587Z,5.33
2018-09-13T08:52:35.070Z,5.40
2018-09-13T08:55:04.418Z,4.50
2018-09-13T08:57:33.676Z,4.93
2018-09-13T09:00:02.915Z,4.13
2018-09-13T09:02:32.200Z,3.97
2018-09-13T09:05:01.415Z,4.17
2018-09-13T09:07:30.731Z,5.00
2018-09-13T09:10:00.015Z,5.03
2018-09-13T09:12:29.290Z,4.67
2018-09-13T09:14:58.661Z,4.27
2018-09-13T09:17:28.075Z,4.83
2018-09-13T09:19:57.888Z,5.20
2018-09-13T09:22:27.172Z,5.30
2018-09-13T09:24:56.967Z,4.20
2018-09-13T09:27:27.003Z,3.70
2018-09-13T09:29:56.436Z,4.00
2018-09-13T09:32:26.314Z,3.83
2018-09-13T09:34:55.730Z,3.70
2018-09-13T09:37:25.165Z,3.90
2018-09-13T09:39:54.536Z,3.50
2018-09-13T09:42:23.692Z,3.30
2018-09-13T09:44:53.026Z,2.90
2018-09-13T09:47:22.363Z,3.20
2018-09-13T09:49:51.648Z,3.00
2018-09-13T09:52:20.938Z,2.67
2018-09-13T09:54:50.288Z,2.37
2018-09-13T09:57:19.682Z,2.00
2018-09-13T09:59:48.954Z,3.20
2018-09-13T10:02:19.819Z,3.03
2018-09-13T10:04:49.131Z,3.10
2018-09-13T10:07:19.298Z,3.57
2018-09-13T10:09:48.838Z,3.10
2018-09-13T10:12:18.315Z,3.60
2018-09-13T10:14:52.966Z,3.10
2018-09-13T10:17:27.520Z,3.30
2018-09-13T10:20:02.098Z,3.40
2018-09-13T10:22:36.488Z,2.53
2018-09-13T10:25:11.203Z,2.40
2018-09-13T10:27:45.643Z,2.67
2018-09-13T10:30:20.064Z,2.20
2018-09-13T10:32:54.663Z,2.10
2018-09-13T10:35:29.236Z,2.30
2018-09-13T10:38:03.576Z,2.70
2018-09-13T10:40:38.067Z,2.07
2018-09-13T10:43:12.748Z,2.10
2018-09-13T10:45:47.194Z,2.50
2018-09-13T10:48:21.719Z,2.50
2018-09-13T10:50:56.578Z,2.47
2018-09-13T10:53:29.477Z,2.60
2018-09-13T10:55:59.994Z,3.10
2018-09-13T10:58:29.495Z,3.30
2018-09-13T11:00:58.904Z,2.70
2018-09-13T11:03:28.198Z,3.00
2018-09-13T11:05:57.419Z,2.80
2018-09-13T11:08:26.723Z,2.80
2018-09-13T11:10:56.278Z,2.83
2018-09-13T11:13:29.595Z,2.60
2018-09-13T11:15:59.123Z,3.20
2018-09-13T11:18:28.357Z,3.03
2018-09-13T11:20:57.668Z,2.43
2018-09-13T11:23:26.883Z,3.20
2018-09-13T11:25:56.052Z,3.20
2018-09-13T11:28:25.362Z,2.70
2018-09-13T11:30:59.734Z,3.03
2018-09-13T11:33:29.022Z,2.43
2018-09-13T11:35:58.235Z,2.93
2018-09-13T11:38:27.590Z,2.90
2018-09-13T11:40:57.362Z,3.20
2018-09-13T11:43:26.490Z,2.70
2018-09-13T11:45:55.795Z,2.80
2018-09-13T11:48:25.081Z,2.80
2018-09-13T11:50:54.301Z,3.03
2018-09-13T11:53:23.499Z,3.40
2018-09-13T11:55:52.781Z,3.80
2018-09-13T11:58:21.993Z,2.90
2018-09-13T12:00:51.532Z,3.27
2018-09-13T12:03:20.787Z,2.70
2018-09-13T12:05:50.248Z,2.50
2018-09-13T12:08:19.484Z,2.43
2018-09-13T12:10:48.783Z,3.00
2018-09-13T12:13:18.074Z,2.40
2018-09-13T12:15:47.354Z,2.70
2018-09-13T12:18:16.914Z,2.50
2018-09-13T12:20:46.115Z,2.70
2018-09-13T12:23:15.703Z,2.30
2018-09-13T12:25:44.904Z,3.03
2018-09-13T12:28:14.179Z,2.50
2018-09-13T12:30:43.543Z,2.70
2018-09-13T12:33:12.843Z,2.93
2018-09-13T12:35:42.147Z,2.87
2018-09-13T12:38:11.483Z,2.70
2018-09-13T12:40:40.715Z,2.60
2018-09-13T12:43:09.999Z,3.40
2018-09-13T12:45:39.342Z,2.43
2018-09-13T12:48:09.003Z,3.00
2018-09-13T12:50:38.483Z,3.10
2018-09-13T12:53:08.047Z,2.80
2018-09-13T12:55:42.763Z,2.63
2018-09-13T12:58:12.138Z,3.10
2018-09-13T13:00:41.468Z,2.70
2018-09-13T13:03:10.718Z,2.30
2018-09-13T13:05:40.043Z,2.87
2018-09-13T13:08:09.350Z,2.53
2018-09-13T13:10:38.654Z,2.13
2018-09-13T13:13:07.943Z,3.27
2018-09-13T13:15:37.227Z,2.33
2018-09-13T13:18:06.683Z,2.33
2018-09-13T13:20:35.932Z,2.20
2018-09-13T13:23:05.275Z,2.80
2018-09-13T13:25:34.531Z,2.37
2018-09-13T13:28:03.724Z,2.10
2018-09-13T13:30:33.026Z,2.30
2018-09-13T13:33:02.262Z,2.10
2018-09-13T13:35:31.536Z,1.93
2018-09-13T13:38:00.783Z,2.10
2018-09-13T13:40:30.038Z,2.00
2018-09-13T13:42:59.309Z,1.80
2018-09-13T13:45:28.603Z,2.20
2018-09-13T13:47:57.897Z,2.63
2018-09-13T13:50:27.276Z,2.40
2018-09-13T13:52:56.545Z,2.50
2018-09-13T13:55:26.027Z,2.30
2018-09-13T13:57:55.439Z,2.27
2018-09-13T14:00:24.892Z,2.10
2018-09-13T14:02:54.126Z,2.37
2018-09-13T14:05:23.396Z,2.43
2018-09-13T14:07:52.636Z,2.20
2018-09-13T14:10:21.980Z,2.60
2018-09-13T14:12:51.422Z,2.20
2018-09-13T14:15:20.738Z,2.57
2018-09-13T14:17:50.069Z,2.60
2018-09-13T14:20:19.416Z,2.83
2018-09-13T14:22:48.683Z,2.57
2018-09-13T14:25:18.072Z,2.10
2018-09-13T14:27:47.304Z,2.67
2018-09-13T14:30:16.589Z,2.10
2018-09-13T14:32:45.881Z,2.20
2018-09-13T14:35:15.159Z,2.20
2018-09-13T14:37:44.430Z,2.90
2018-09-13T14:40:13.802Z,2.40
2018-09-13T14:42:43.003Z,2.00
2018-09-13T14:45:12.312Z,2.20
2018-09-13T14:47:41.678Z,9.07
2018-09-13T14:50:11.247Z,2.93
2018-09-13T14:52:40.506Z,3.70
2018-09-13T14:55:09.740Z,2.80
2018-09-13T14:57:38.978Z,2.40
2018-09-13T15:00:09.492Z,1.90
2018-09-13T15:02:38.794Z,2.77
2018-09-13T15:05:08.111Z,2.60
2018-09-13T15:07:37.414Z,2.43
2018-09-13T15:10:06.884Z,2.33
2018-09-13T15:12:36.204Z,2.40
2018-09-13T15:15:05.549Z,2.80
2018-09-13T15:17:35.128Z,2.27
2018-09-13T15:20:04.511Z,2.63
2018-09-13T15:22:33.835Z,2.63
2018-09-13T15:25:03.099Z,2.43
2018-09-13T15:27:32.347Z,2.60
2018-09-13T15:30:01.619Z,2.40
2018-09-13T15:32:30.895Z,2.40
2018-09-13T15:35:00.429Z,2.97
2018-09-13T15:37:29.745Z,2.53
2018-09-13T15:39:59.118Z,2.47
2018-09-13T15:42:28.433Z,2.93
2018-09-13T15:44:57.879Z,2.83
2018-09-13T15:47:27.136Z,2.93
2018-09-13T15:49:57.714Z,2.63
2018-09-13T15:52:27.220Z,2.63
2018-09-13T15:54:56.667Z,2.60
2018-09-13T15:57:26.166Z,2.97
2018-09-13T15:59:55.469Z,2.60
2018-09-13T16:02:25.239Z,2.60
2018-09-13T16:04:54.928Z,2.63
2018-09-13T16:07:24.251Z,3.33
2018-09-13T16:09:53.795Z,3.23
2018-09-13T16:12:23.304Z,2.30
2018-09-13T16:14:52.529Z,2.07
2018-09-13T16:17:21.952Z,2.27
2018-09-13T16:19:51.311Z,2.27
2018-09-13T16:22:21.620Z,2.50
2018-09-13T16:24:51.061Z,2.30
2018-09-13T16:27:20.411Z,26.53
2018-09-13T16:29:49.665Z,3.60
2018-09-13T16:32:21.465Z,2.70
2018-09-13T16:34:51.965Z,2.40
2018-09-13T16:37:26.828Z,2.27
2018-09-13T16:40:05.084Z,2.10
2018-09-13T16:42:45.867Z,2.30
2018-09-13T16:45:15.267Z,1.70
2018-09-13T16:47:49.884Z,2.10
2018-09-13T16:50:19.261Z,1.97
2018-09-13T16:52:49.798Z,2.70
2018-09-13T16:55:19.104Z,1.97
2018-09-13T16:57:48.366Z,2.33
2018-09-13T17:00:18.810Z,2.10
2018-09-13T17:02:51.283Z,2.07
2018-09-13T17:05:20.614Z,2.73
2018-09-13T17:07:49.987Z,2.00
2018-09-13T17:10:19.357Z,2.00
2018-09-13T17:12:48.563Z,2.23
2018-09-13T17:15:17.830Z,2.60
2018-09-13T17:17:47.163Z,2.23
2018-09-13T17:20:16.515Z,2.20
2018-09-13T17:22:45.846Z,2.37
2018-09-13T17:25:15.161Z,2.53
2018-09-13T17:27:44.533Z,2.30
2018-09-13T17:30:13.758Z,2.67
2018-09-13T17:32:43.039Z,2.63
2018-09-13T17:35:12.338Z,2.60
2018-09-13T17:37:41.931Z,3.00
2018-09-13T17:40:11.409Z,5.27
2018-09-13T17:42:41.163Z,2.87
2018-09-13T17:45:12.587Z,3.23
2018-09-13T17:47:41.939Z,3.30
2018-09-13T17:50:12.639Z,3.40
2018-09-13T17:52:41.967Z,3.70
2018-09-13T17:55:11.252Z,3.40
2018-09-13T17:57:40.524Z,3.63
2018-09-13T18:00:11.363Z,3.07
2018-09-13T18:02:40.967Z,3.30
2018-09-13T18:05:10.544Z,3.60
2018-09-13T18:07:39.958Z,3.37
2018-09-13T18:10:10.525Z,3.37
2018-09-13T18:12:40.211Z,3.90
2018-09-13T18:15:09.605Z,4.63
2018-09-13T18:17:39.044Z,4.00
2018-09-13T18:20:08.491Z,3.77
2018-09-13T18:22:37.843Z,3.73
2018-09-13T18:25:07.324Z,3.63
2018-09-13T18:27:36.720Z,2.90
2018-09-13T18:30:06.860Z,3.07
2018-09-13T18:32:36.317Z,3.07
2018-09-13T18:35:05.643Z,3.03
2018-09-13T18:37:36.190Z,3.63
2018-09-13T18:40:05.716Z,3.80
2018-09-13T18:42:34.995Z,3.70
2018-09-13T18:45:04.585Z,3.53
2018-09-13T18:47:34.980Z,4.10
2018-09-13T18:50:04.500Z,4.40
2018-09-13T18:52:33.815Z,3.47
2018-09-13T18:55:04.066Z,3.80
2018-09-13T18:57:34.387Z,3.60
2018-09-13T19:00:03.740Z,3.87
2018-09-13T19:02:34.111Z,3.60
2018-09-13T19:05:03.521Z,3.60
2018-09-13T19:07:33.061Z,3.63
2018-09-13T19:10:02.358Z,3.80
2018-09-13T19:12:31.645Z,3.47
2018-09-13T19:15:00.994Z,3.47
2018-09-13T19:17:30.259Z,3.60
2018-09-13T19:19:59.524Z,3.67
2018-09-13T19:22:28.847Z,3.80
2018-09-13T19:24:58.252Z,4.27
2018-09-13T19:27:27.531Z,3.87
2018-09-13T19:29:56.824Z,3.70
2018-09-13T19:32:26.138Z,3.60
2018-09-13T19:34:55.450Z,3.60
2018-09-13T19:37:24.851Z,3.77
2018-09-13T19:39:54.210Z,3.37
2018-09-13T19:42:23.922Z,3.83
2018-09-13T19:44:53.378Z,3.27
2018-09-13T19:47:22.827Z,3.83
2018-09-13T19:49:53.706Z,4.37
2018-09-13T19:52:23.012Z,3.47
2018-09-13T19:54:52.272Z,4.17
2018-09-13T19:57:21.575Z,3.90
2018-09-13T19:59:50.825Z,4.70
2018-09-13T20:02:21.082Z,3.83
2018-09-13T20:04:50.465Z,3.40
2018-09-13T20:07:19.802Z,4.13
2018-09-13T20:09:49.175Z,3.43
2018-09-13T20:12:18.543Z,3.90
2018-09-13T20:14:47.849Z,3.90
2018-09-13T20:17:17.120Z,4.20
2018-09-13T20:19:46.427Z,5.17
2018-09-13T20:22:15.687Z,4.40
2018-09-13T20:24:46.153Z,4.43
2018-09-13T20:27:15.393Z,4.33
2018-09-13T20:29:44.647Z,4.10
2018-09-13T20:32:13.900Z,4.43
2018-09-13T20:34:43.178Z,4.43
2018-09-13T20:37:17.599Z,4.47
2018-09-13T20:39:47.615Z,4.07
2018-09-13T20:42:17.142Z,5.10
2018-09-13T20:44:46.559Z,4.43
2018-09-13T20:47:15.886Z,4.37
2018-09-13T20:49:45.207Z,4.60
2018-09-13T20:52:14.459Z,4.00
2018-09-13T20:54:43.795Z,4.20
2018-09-13T20:57:14.193Z,4.30
2018-09-13T20:59:43.480Z,4.30
2018-09-13T21:02:12.758Z,4.40
2018-09-13T21:04:42.280Z,4.20
2018-09-13T21:07:11.623Z,4.63
2018-09-13T21:09:40.879Z,4.10
2018-09-13T21:12:10.207Z,3.77
2018-09-13T21:14:39.578Z,4.03
2018-09-13T21:17:08.924Z,4.70
2018-09-13T21:19:38.227Z,4.20
2018-09-13T21:22:08.619Z,5.37
2018-09-13T21:24:38.036Z,4.20
2018-09-13T21:44:48.595Z,5.30
2018-09-13T21:47:17.877Z,5.47
2018-09-13T21:49:47.200Z,5.43
2018-09-13T21:52:16.481Z,5.90
2018-09-13T21:54:45.822Z,5.87
2018-09-13T21:57:15.141Z,5.77
2018-09-13T21:59:44.398Z,6.10
2018-09-13T22:02:13.784Z,6.00
2018-09-13T22:04:43.162Z,6.50
2018-09-13T22:07:12.447Z,7.13
2018-09-13T22:09:41.733Z,6.30
2018-09-13T22:12:12.574Z,6.20
2018-09-13T22:14:42.570Z,5.50
2018-09-13T22:17:12.524Z,5.60
2018-09-13T22:19:41.840Z,5.30
2018-09-13T22:22:11.161Z,5.67
2018-09-13T22:24:40.463Z,5.67
2018-09-13T22:27:09.779Z,5.27
2018-09-13T22:29:39.108Z,5.60
2018-09-13T22:32:08.478Z,6.27
2018-09-13T22:34:37.691Z,5.27
2018-09-13T22:37:07.219Z,5.43
2018-09-13T22:39:36.543Z,6.07
2018-09-13T22:42:05.858Z,5.27
2018-09-13T22:44:42.345Z,5.27
2018-09-13T22:47:12.465Z,5.47
2018-09-13T22:49:42.890Z,5.83
2018-09-13T22:52:12.090Z,5.00
2018-09-13T22:54:41.427Z,5.53
2018-09-13T23:14:52.088Z,5.13
2018-09-13T23:17:21.507Z,5.53
2018-09-13T23:37:32.479Z,4.40
2018-09-13T23:40:01.884Z,4.80
2018-09-13T23:42:31.115Z,5.03
